createdAt,value
2018-08-16T00:02:21.382Z,12.30
2018-08-16T00:04:49.440Z,12.30
2018-08-16T00:07:17.511Z,12.30
2018-08-16T00:09:45.550Z,12.30
2018-08-16T00:12:13.690Z,12.30
2018-08-16T00:14:41.781Z,12.30
2018-08-16T00:17:10.516Z,12.30
2018-08-16T00:19:39.187Z,12.30
2018-08-16T00:22:07.252Z,12.30
2018-08-16T00:24:35.487Z,12.30
2018-08-16T00:27:03.559Z,12.40
2018-08-16T00:29:31.600Z,12.40
2018-08-16T00:31:59.662Z,12.40
2018-08-16T00:34:27.816Z,12.40
2018-08-16T00:36:55.927Z,12.50
2018-08-16T00:39:23.974Z,12.50
2018-08-16T00:41:52.044Z,12.40
2018-08-16T00:44:20.090Z,12.40
2018-08-16T00:46:51.867Z,12.40
2018-08-16T00:49:19.912Z,12.40
2018-08-16T00:51:47.969Z,12.40
2018-08-16T00:54:16.033Z,12.40
2018-08-16T00:56:44.090Z,12.30
2018-08-16T00:59:12.118Z,12.10
2018-08-16T01:01:40.186Z,12.10
2018-08-16T01:04:08.257Z,12.00
2018-08-16T01:06:38.223Z,12.00
2018-08-16T01:09:07.989Z,12.10
2018-08-16T01:11:36.033Z,12.10
2018-08-16T01:14:04.901Z,12.10
2018-08-16T01:16:32.989Z,12.20
2018-08-16T01:19:01.073Z,12.20
2018-08-16T01:21:29.141Z,12.20
2018-08-16T01:23:57.230Z,12.20
2018-08-16T01:26:25.272Z,12.30
2018-08-16T01:28:53.374Z,12.30
2018-08-16T01:31:21.427Z,12.30
2018-08-16T01:33:49.480Z,12.30
2018-08-16T01:36:17.523Z,12.30
2018-08-16T01:38:45.596Z,12.30
2018-08-16T01:41:13.694Z,12.30
2018-08-16T01:43:41.760Z,12.30
2018-08-16T01:46:09.822Z,12.20
2018-08-16T01:48:37.899Z,12.10
2018-08-16T01:51:05.763Z,12.10
2018-08-16T01:53:33.817Z,12.10
2018-08-16T01:56:01.866Z,12.10
2018-08-16T01:58:29.910Z,12.10
2018-08-16T02:00:57.966Z,12.10
2018-08-16T02:03:26.047Z,12.10
2018-08-16T02:05:54.094Z,12.00
2018-08-16T02:08:22.135Z,11.90
2018-08-16T02:10:50.187Z,11.70
2018-08-16T02:13:18.269Z,11.70
2018-08-16T02:15:46.314Z,11.70
2018-08-16T02:18:14.377Z,11.70
2018-08-16T02:20:42.443Z,11.70
2018-08-16T02:23:10.493Z,11.80
2018-08-16T02:25:38.550Z,11.80
2018-08-16T02:28:06.614Z,11.80
2018-08-16T02:30:34.707Z,11.90
2018-08-16T02:33:02.778Z,11.70
2018-08-16T02:35:30.875Z,11.60
2018-08-16T02:37:58.934Z,11.50
2018-08-16T02:40:27.003Z,11.50
2018-08-16T02:42:55.119Z,11.40
2018-08-16T02:45:23.178Z,11.30
2018-08-16T02:47:51.240Z,11.30
2018-08-16T02:50:19.288Z,11.30
2018-08-16T02:52:47.345Z,11.30
2018-08-16T02:55:15.377Z,11.30
2018-08-16T02:57:43.418Z,11.30
2018-08-16T03:00:11.486Z,11.40
2018-08-16T03:02:39.578Z,11.60
2018-08-16T03:05:07.796Z,11.70
2018-08-16T03:07:36.145Z,11.80
2018-08-16T03:10:05.513Z,11.90
2018-08-16T03:12:33.559Z,12.00
2018-08-16T03:15:01.611Z,11.90
2018-08-16T03:17:29.658Z,11.80
2018-08-16T03:19:57.701Z,11.90
2018-08-16T03:22:25.746Z,11.80
2018-08-16T03:24:53.817Z,11.70
2018-08-16T03:27:21.870Z,11.60
2018-08-16T03:29:49.934Z,11.50
2018-08-16T03:32:17.969Z,11.50
2018-08-16T03:34:46.016Z,11.50
2018-08-16T03:37:14.059Z,11.50
2018-08-16T03:39:42.321Z,11.50
2018-08-16T03:42:10.373Z,11.50
2018-08-16T03:44:38.449Z,11.40
2018-08-16T03:47:06.503Z,11.40
2018-08-16T03:49:34.553Z,11.40
2018-08-16T03:52:02.606Z,11.40
2018-08-16T03:54:30.665Z,11.40
2018-08-16T03:56:58.706Z,11.40
2018-08-16T03:59:26.762Z,11.50
2018-08-16T04:01:54.817Z,11.60
2018-08-16T04:04:22.907Z,11.60
2018-08-16T04:06:50.966Z,11.60
2018-08-16T04:09:19.043Z,11.70
2018-08-16T04:11:47.127Z,11.70
2018-08-16T04:14:15.212Z,11.70
2018-08-16T04:16:43.305Z,11.60
2018-08-16T04:19:11.383Z,11.60
2018-08-16T04:21:39.436Z,11.50
2018-08-16T04:24:07.483Z,11.50
2018-08-16T04:26:35.547Z,11.50
2018-08-16T04:29:03.629Z,11.60
2018-08-16T04:31:31.677Z,11.70
2018-08-16T04:33:59.726Z,11.80
2018-08-16T04:36:27.815Z,11.90
2018-08-16T04:38:56.020Z,12.10
2018-08-16T04:41:24.099Z,12.20
2018-08-16T04:43:52.139Z,12.30
2018-08-16T04:46:20.186Z,12.40
2018-08-16T04:48:48.282Z,12.40
2018-08-16T04:51:16.450Z,12.40
2018-08-16T04:53:44.511Z,12.40
2018-08-16T04:56:12.571Z,12.40
2018-08-16T04:58:40.619Z,12.40
2018-08-16T05:01:08.673Z,12.50
2018-08-16T05:03:36.726Z,12.70
2018-08-16T05:08:57.990Z,13.10
2018-08-16T05:11:26.050Z,13.50
2018-08-16T05:13:54.090Z,13.90
2018-08-16T05:16:22.146Z,14.10
2018-08-16T05:18:50.194Z,14.20
2018-08-16T05:21:18.273Z,14.40
2018-08-16T05:23:46.409Z,14.60
2018-08-16T05:26:14.426Z,14.90
2018-08-16T05:28:42.479Z,15.20
2018-08-16T05:31:10.881Z,15.50
2018-08-16T05:33:39.131Z,16.00
2018-08-16T05:36:07.496Z,16.50
2018-08-16T05:38:35.556Z,17.00
2018-08-16T05:41:03.648Z,17.30
2018-08-16T05:43:31.848Z,17.80
2018-08-16T05:45:59.857Z,18.10
2018-08-16T05:48:27.967Z,18.50
2018-08-16T05:50:56.172Z,18.80
2018-08-16T05:53:24.170Z,19.20
2018-08-16T05:55:52.282Z,19.30
2018-08-16T05:58:20.342Z,19.20
2018-08-16T06:00:48.451Z,19.70
2018-08-16T06:03:16.518Z,20.30
2018-08-16T06:05:44.610Z,20.90
2018-08-16T06:08:12.714Z,21.30
2018-08-16T06:10:40.790Z,21.60
2018-08-16T06:13:08.858Z,21.70
2018-08-16T06:15:36.991Z,22.20
2018-08-16T06:18:05.055Z,22.40
2018-08-16T06:20:33.902Z,22.80
2018-08-16T06:23:01.992Z,23.00
2018-08-16T06:25:30.094Z,23.40
2018-08-16T06:27:58.196Z,23.70
2018-08-16T06:30:26.279Z,23.80
2018-08-16T06:32:54.416Z,23.70
2018-08-16T06:35:22.503Z,23.70
2018-08-16T06:37:50.582Z,23.60
2018-08-16T06:40:18.727Z,23.60
2018-08-16T06:42:47.785Z,23.60
2018-08-16T06:45:15.910Z,23.60
2018-08-16T06:47:44.047Z,23.60
2018-08-16T06:50:12.155Z,23.80
2018-08-16T06:52:40.216Z,23.90
2018-08-16T06:55:10.158Z,24.10
2018-08-16T06:57:38.214Z,24.50
2018-08-16T07:00:07.137Z,25.00
2018-08-16T07:02:35.363Z,25.10
2018-08-16T07:05:03.460Z,25.40
2018-08-16T07:07:31.535Z,25.40
2018-08-16T07:09:59.620Z,25.10
2018-08-16T07:12:27.880Z,24.90
2018-08-16T07:14:55.897Z,25.20
2018-08-16T07:17:24.003Z,25.20
2018-08-16T07:19:52.063Z,25.30
2018-08-16T07:22:20.151Z,25.40
2018-08-16T07:24:48.287Z,25.70
2018-08-16T07:27:16.419Z,25.90
2018-08-16T07:29:44.507Z,26.00
2018-08-16T07:32:12.574Z,26.60
2018-08-16T07:34:40.634Z,26.70
2018-08-16T07:37:08.732Z,26.60
2018-08-16T07:39:36.884Z,26.50
2018-08-16T07:42:04.987Z,26.50
2018-08-16T07:44:33.081Z,26.50
2018-08-16T07:47:01.180Z,26.70
2018-08-16T07:49:29.268Z,27.10
2018-08-16T07:51:57.394Z,27.30
2018-08-16T07:54:25.413Z,27.80
2018-08-16T07:56:53.541Z,28.40
2018-08-16T07:59:21.597Z,28.90
2018-08-16T08:01:49.699Z,29.00
2018-08-16T08:04:17.783Z,29.00
2018-08-16T08:06:45.906Z,29.30
2018-08-16T08:09:14.121Z,29.40
2018-08-16T08:11:42.150Z,28.90
2018-08-16T08:14:10.237Z,28.80
2018-08-16T08:16:38.330Z,29.20
2018-08-16T08:19:06.414Z,29.80
2018-08-16T08:21:34.525Z,29.50
2018-08-16T08:24:02.562Z,29.50
2018-08-16T08:26:30.658Z,29.50
2018-08-16T08:28:58.731Z,29.70
2018-08-16T08:31:27.341Z,29.80
2018-08-16T08:33:55.443Z,30.20
2018-08-16T08:36:35.052Z,30.80
2018-08-16T08:39:03.239Z,31.00
2018-08-16T08:41:31.252Z,31.10
2018-08-16T08:44:13.301Z,31.30
2018-08-16T08:46:41.481Z,31.00
2018-08-16T08:49:09.566Z,31.00
2018-08-16T08:51:37.712Z,30.90
2018-08-16T08:54:35.134Z,30.70
2018-08-16T08:57:14.627Z,31.00
2018-08-16T08:59:42.709Z,31.40
2018-08-16T09:02:11.478Z,31.80
2018-08-16T09:04:39.562Z,32.10
2018-08-16T09:07:09.480Z,32.30
2018-08-16T09:09:37.578Z,32.40
2018-08-16T09:12:17.083Z,32.60
2018-08-16T09:14:56.690Z,32.40
2018-08-16T09:17:24.967Z,31.80
2018-08-16T09:19:54.722Z,32.60
2018-08-16T09:22:22.852Z,33.20
2018-08-16T09:24:50.977Z,34.00
2018-08-16T09:27:19.152Z,33.30
2018-08-16T09:30:24.860Z,32.90
2018-08-16T09:33:04.395Z,33.40
2018-08-16T09:35:32.532Z,34.50
2018-08-16T09:38:00.673Z,34.60
2018-08-16T09:40:28.750Z,35.10
2018-08-16T09:47:06.441Z,34.60
2018-08-16T09:49:50.803Z,33.90
2018-08-16T09:52:19.465Z,33.10
2018-08-16T09:54:47.762Z,33.40
2018-08-16T09:57:16.353Z,33.20
2018-08-16T09:59:44.479Z,32.80
2018-08-16T10:02:17.282Z,33.70
2018-08-16T10:04:45.416Z,34.00
2018-08-16T10:07:13.667Z,33.50
2018-08-16T10:09:41.788Z,33.80
2018-08-16T10:12:09.944Z,34.50
2018-08-16T10:14:38.040Z,35.30
2018-08-16T10:17:06.163Z,34.40
2018-08-16T10:19:34.268Z,34.40
2018-08-16T10:22:02.342Z,34.60
2018-08-16T10:24:30.411Z,35.90
2018-08-16T10:26:58.542Z,34.50
2018-08-16T10:29:26.571Z,33.30
2018-08-16T10:31:54.625Z,33.80
2018-08-16T10:34:22.801Z,34.60
2018-08-16T10:36:50.882Z,35.20
2018-08-16T10:39:19.173Z,35.40
2018-08-16T10:41:47.254Z,35.30
2018-08-16T10:44:15.963Z,35.20
2018-08-16T10:46:44.041Z,35.30
2018-08-16T10:49:12.170Z,35.40
2018-08-16T10:51:40.273Z,35.70
2018-08-16T10:54:08.440Z,36.20
2018-08-16T10:56:36.550Z,36.50
2018-08-16T10:59:04.805Z,36.80
2018-08-16T11:01:32.916Z,36.90
2018-08-16T11:04:01.030Z,36.30
2018-08-16T11:06:29.090Z,35.50
2018-08-16T11:08:57.197Z,34.80
2018-08-16T11:11:25.257Z,35.50
2018-08-16T11:13:53.355Z,35.90
2018-08-16T11:16:21.478Z,36.40
2018-08-16T11:18:49.885Z,35.60
2018-08-16T11:21:17.952Z,35.60
2018-08-16T11:23:46.025Z,35.50
2018-08-16T11:26:14.095Z,35.70
2018-08-16T11:28:42.166Z,35.70
2018-08-16T11:31:10.266Z,36.30
2018-08-16T11:33:38.335Z,37.60
2018-08-16T11:36:06.492Z,39.50
2018-08-16T11:38:34.623Z,39.20
2018-08-16T11:41:02.734Z,38.00
2018-08-16T11:43:30.801Z,37.60
2018-08-16T11:45:58.925Z,37.50
2018-08-16T11:48:26.982Z,36.90
2018-08-16T11:50:55.164Z,36.20
2018-08-16T11:53:23.208Z,36.90
2018-08-16T11:55:51.394Z,36.80
2018-08-16T11:58:20.220Z,37.70
2018-08-16T12:00:48.383Z,38.30
2018-08-16T12:03:16.615Z,39.20
2018-08-16T12:05:44.790Z,39.40
2018-08-16T12:08:12.951Z,39.20
2018-08-16T12:10:41.010Z,38.80
2018-08-16T12:13:10.222Z,36.70
2018-08-16T12:15:38.327Z,36.00
2018-08-16T12:18:07.242Z,36.20
2018-08-16T12:20:35.324Z,37.20
2018-08-16T12:23:03.400Z,38.80
2018-08-16T12:25:31.522Z,38.10
2018-08-16T12:27:59.578Z,37.40
2018-08-16T12:30:27.684Z,37.30
2018-08-16T12:32:56.091Z,37.10
2018-08-16T12:35:24.190Z,36.60
2018-08-16T12:37:52.330Z,36.80
2018-08-16T12:40:20.438Z,37.20
2018-08-16T12:42:48.495Z,36.80
2018-08-16T12:45:16.660Z,36.10
2018-08-16T12:47:44.730Z,35.60
2018-08-16T12:50:12.860Z,35.90
2018-08-16T12:52:40.978Z,36.60
2018-08-16T12:55:09.038Z,37.20
2018-08-16T12:57:37.103Z,36.40
2018-08-16T13:00:08.150Z,36.10
2018-08-16T13:02:36.226Z,36.10
2018-08-16T13:05:05.351Z,36.80
2018-08-16T13:07:33.479Z,36.40
2018-08-16T13:10:01.585Z,35.80
2018-08-16T13:12:30.955Z,35.40
2018-08-16T13:14:59.143Z,35.50
2018-08-16T13:17:27.207Z,35.70
2018-08-16T13:19:55.303Z,35.70
2018-08-16T13:22:23.383Z,35.40
2018-08-16T13:24:51.566Z,36.00
2018-08-16T13:27:19.729Z,37.00
2018-08-16T13:29:47.862Z,37.30
2018-08-16T13:32:15.967Z,37.60
2018-08-16T13:34:44.029Z,37.10
2018-08-16T13:37:12.494Z,36.10
2018-08-16T13:39:40.579Z,35.60
2018-08-16T13:42:08.721Z,35.60
2018-08-16T13:44:36.815Z,36.20
2018-08-16T13:47:04.916Z,36.00
2018-08-16T13:49:32.980Z,36.10
2018-08-16T13:52:01.254Z,36.30
2018-08-16T13:54:29.328Z,36.00
2018-08-16T13:56:57.430Z,36.40
2018-08-16T13:59:25.520Z,36.70
2018-08-16T14:01:53.776Z,36.50
2018-08-16T14:04:21.744Z,36.60
2018-08-16T14:06:49.824Z,37.50
2018-08-16T14:09:17.915Z,38.00
2018-08-16T14:11:45.986Z,37.70
2018-08-16T14:14:14.056Z,37.30
2018-08-16T14:16:42.174Z,36.90
2018-08-16T14:19:10.265Z,36.50
2018-08-16T14:21:38.342Z,35.90
2018-08-16T14:24:06.835Z,36.00
2018-08-16T14:26:34.923Z,35.70
2018-08-16T14:29:03.030Z,36.10
2018-08-16T14:31:31.152Z,36.50
2018-08-16T14:33:59.238Z,36.50
2018-08-16T14:36:27.451Z,35.50
2018-08-16T14:38:55.522Z,34.90
2018-08-16T14:41:23.607Z,34.90
2018-08-16T14:43:51.677Z,35.70
2018-08-16T14:46:19.734Z,36.10
2018-08-16T14:48:47.798Z,36.20
2018-08-16T14:51:15.901Z,36.10
2018-08-16T14:53:43.943Z,36.20
2018-08-16T14:56:12.130Z,35.80
2018-08-16T14:58:40.427Z,34.20
2018-08-16T15:01:08.584Z,32.70
2018-08-16T15:03:36.675Z,32.20
2018-08-16T15:06:04.770Z,32.50
2018-08-16T15:08:32.868Z,33.50
2018-08-16T15:11:00.954Z,33.70
2018-08-16T15:13:29.120Z,33.90
2018-08-16T15:15:57.248Z,33.30
2018-08-16T15:18:25.347Z,32.20
2018-08-16T15:20:54.544Z,31.00
2018-08-16T15:23:22.606Z,30.50
2018-08-16T15:25:50.664Z,30.10
2018-08-16T15:28:18.731Z,30.20
2018-08-16T15:30:46.786Z,30.60
2018-08-16T15:33:14.911Z,31.60
2018-08-16T15:35:43.021Z,32.90
2018-08-16T15:38:11.125Z,33.50
2018-08-16T15:40:39.201Z,33.00
2018-08-16T15:43:07.347Z,32.60
2018-08-16T15:45:35.409Z,32.60
2018-08-16T15:48:05.964Z,32.10
2018-08-16T15:50:34.902Z,31.30
2018-08-16T15:53:03.040Z,31.30
2018-08-16T15:55:31.131Z,30.80
2018-08-16T15:57:59.226Z,30.00
2018-08-16T16:00:27.294Z,29.50
2018-08-16T16:02:55.364Z,29.20
2018-08-16T16:05:23.450Z,29.00
2018-08-16T16:07:51.520Z,28.80
2018-08-16T16:10:19.628Z,28.70
2018-08-16T16:12:47.708Z,28.60
2018-08-16T16:15:15.815Z,28.60
2018-08-16T16:17:43.893Z,28.60
2018-08-16T16:20:11.986Z,28.60
2018-08-16T16:22:40.054Z,28.50
2018-08-16T16:25:08.491Z,28.50
2018-08-16T16:27:36.944Z,28.40
2018-08-16T16:30:06.361Z,28.50
2018-08-16T16:32:34.487Z,28.40
2018-08-16T16:35:02.558Z,28.20
2018-08-16T16:37:30.655Z,28.20
2018-08-16T16:39:58.726Z,28.20
2018-08-16T16:45:19.857Z,28.10
2018-08-16T16:47:48.010Z,28.10
2018-08-16T16:50:16.084Z,28.00
2018-08-16T16:52:44.190Z,28.00
2018-08-16T16:55:12.381Z,27.90
2018-08-16T16:57:40.470Z,27.90
2018-08-16T17:00:09.073Z,27.70
2018-08-16T17:02:37.178Z,27.60
2018-08-16T17:05:05.360Z,27.50
2018-08-16T17:07:33.458Z,27.40
2018-08-16T17:10:01.547Z,27.40
2018-08-16T17:12:29.646Z,27.40
2018-08-16T17:14:57.785Z,27.30
2018-08-16T17:17:25.882Z,27.20
2018-08-16T17:19:53.954Z,27.10
2018-08-16T17:22:22.014Z,27.00
2018-08-16T17:24:50.069Z,26.90
2018-08-16T17:27:18.144Z,26.80
2018-08-16T17:29:46.235Z,26.60
2018-08-16T17:32:14.323Z,26.50
2018-08-16T17:34:42.393Z,26.40
2018-08-16T17:37:10.456Z,26.40
2018-08-16T17:39:38.535Z,26.30
2018-08-16T17:42:06.908Z,26.20
2018-08-16T17:44:34.977Z,26.00
2018-08-16T17:47:03.107Z,25.80
2018-08-16T17:49:31.325Z,25.70
2018-08-16T17:51:59.545Z,25.40
2018-08-16T17:54:27.806Z,25.30
2018-08-16T17:56:55.926Z,25.10
2018-08-16T17:59:24.014Z,24.90
2018-08-16T18:01:52.087Z,24.80
2018-08-16T18:04:20.202Z,24.70
2018-08-16T18:06:48.339Z,24.50
2018-08-16T18:09:16.434Z,24.50
2018-08-16T18:11:44.485Z,24.30
2018-08-16T18:14:12.665Z,24.20
2018-08-16T18:16:40.798Z,24.10
2018-08-16T18:19:08.893Z,24.00
2018-08-16T18:21:36.953Z,23.90
2018-08-16T18:24:05.039Z,23.70
2018-08-16T18:26:33.158Z,23.70
2018-08-16T18:29:01.251Z,23.50
2018-08-16T18:31:29.349Z,23.30
2018-08-16T18:33:57.426Z,23.00
2018-08-16T18:36:25.554Z,22.90
2018-08-16T18:38:53.633Z,22.70
2018-08-16T18:41:21.721Z,22.50
2018-08-16T18:43:49.786Z,22.40
2018-08-16T18:46:17.883Z,22.20
2018-08-16T18:48:45.998Z,21.90
2018-08-16T18:51:14.212Z,21.70
2018-08-16T18:53:42.294Z,21.40
2018-08-16T18:56:10.439Z,21.20
2018-08-16T18:58:38.649Z,21.10
2018-08-16T19:01:06.819Z,21.00
2018-08-16T19:03:34.954Z,20.90
2018-08-16T19:06:03.033Z,20.70
2018-08-16T19:08:31.103Z,20.50
2018-08-16T19:10:59.199Z,20.30
2018-08-16T19:13:27.295Z,20.10
2018-08-16T19:15:55.388Z,19.90
2018-08-16T19:18:23.465Z,19.60
2018-08-16T19:20:51.646Z,19.50
2018-08-16T19:23:19.716Z,19.50
2018-08-16T19:25:47.814Z,19.40
2018-08-16T19:28:15.909Z,19.50
2018-08-16T19:30:44.027Z,19.50
2018-08-16T19:33:12.183Z,19.40
2018-08-16T19:35:40.276Z,19.30
2018-08-16T19:38:08.326Z,19.20
2018-08-16T19:40:36.514Z,19.20
2018-08-16T19:43:04.612Z,19.30
2018-08-16T19:45:32.697Z,19.40
2018-08-16T19:48:00.933Z,19.40
2018-08-16T19:50:28.897Z,19.30
2018-08-16T19:52:56.962Z,19.30
2018-08-16T19:55:25.064Z,19.30
2018-08-16T19:57:53.151Z,19.30
2018-08-16T20:00:21.223Z,19.20
2018-08-16T20:02:49.278Z,19.10
2018-08-16T20:05:17.336Z,18.90
2018-08-16T20:07:45.402Z,18.70
2018-08-16T20:10:13.524Z,18.70
2018-08-16T20:12:41.585Z,18.70
2018-08-16T20:15:10.009Z,18.70
2018-08-16T20:17:38.181Z,18.60
2018-08-16T20:20:07.221Z,18.60
2018-08-16T20:22:35.307Z,18.50
2018-08-16T20:25:03.437Z,18.40
2018-08-16T20:27:31.485Z,18.30
2018-08-16T20:29:59.595Z,18.20
2018-08-16T20:32:27.674Z,18.20
2018-08-16T20:34:55.757Z,18.10
2018-08-16T20:37:23.886Z,18.20
2018-08-16T20:39:52.002Z,18.10
2018-08-16T20:42:20.157Z,18.00
2018-08-16T20:44:48.318Z,17.90
2018-08-16T20:47:16.450Z,17.90
2018-08-16T20:49:44.508Z,17.80
2018-08-16T20:52:12.619Z,17.80
2018-08-16T20:54:40.671Z,17.90
2018-08-16T20:57:08.749Z,17.90
2018-08-16T20:59:36.825Z,17.90
2018-08-16T21:02:04.951Z,17.90
2018-08-16T21:04:33.041Z,17.90
2018-08-16T21:07:01.138Z,17.90
2018-08-16T21:09:29.745Z,17.80
2018-08-16T21:11:57.878Z,17.70
2018-08-16T21:14:25.958Z,17.50
2018-08-16T21:16:54.034Z,17.40
2018-08-16T21:19:22.191Z,17.40
2018-08-16T21:21:50.494Z,17.30
2018-08-16T21:24:18.537Z,17.20
2018-08-16T21:26:46.780Z,17.10
2018-08-16T21:29:14.869Z,17.00
2018-08-16T21:31:43.038Z,17.00
2018-08-16T21:34:11.086Z,17.00
2018-08-16T21:36:39.187Z,16.90
2018-08-16T21:39:09.460Z,16.70
2018-08-16T21:41:37.578Z,16.70
2018-08-16T21:44:05.717Z,16.60
2018-08-16T21:46:33.838Z,16.50
2018-08-16T21:49:01.910Z,16.50
2018-08-16T21:51:29.967Z,16.60
2018-08-16T21:53:58.066Z,16.50
2018-08-16T21:56:26.167Z,16.50
2018-08-16T21:58:54.219Z,16.40
2018-08-16T22:01:22.382Z,16.40
2018-08-16T22:03:50.434Z,16.30
2018-08-16T22:06:30.042Z,16.20
2018-08-16T22:08:58.122Z,16.10
2018-08-16T22:11:26.262Z,16.00
2018-08-16T22:13:54.370Z,16.00
2018-08-16T22:16:22.449Z,15.90
2018-08-16T22:18:51.702Z,16.00
2018-08-16T22:21:19.784Z,16.10
2018-08-16T22:23:47.842Z,16.20
2018-08-16T22:26:16.259Z,16.30
2018-08-16T22:28:44.299Z,16.30
2018-08-16T22:31:12.358Z,16.40
2018-08-16T22:33:40.469Z,16.40
2018-08-16T22:36:08.552Z,16.50
2018-08-16T22:38:36.634Z,16.40
2018-08-16T22:41:04.678Z,16.40
2018-08-16T22:43:32.725Z,16.30
2018-08-16T22:46:00.797Z,16.30
2018-08-16T22:48:28.859Z,16.20
2018-08-16T22:50:56.926Z,16.20
2018-08-16T22:53:25.018Z,16.20
2018-08-16T22:55:53.074Z,16.20
2018-08-16T22:58:21.146Z,16.30
2018-08-16T23:00:49.298Z,16.30
2018-08-16T23:03:17.400Z,16.30
2018-08-16T23:05:45.446Z,16.20
2018-08-16T23:08:13.537Z,16.10
2018-08-16T23:10:41.601Z,16.00
2018-08-16T23:13:25.815Z,15.90
2018-08-16T23:15:53.884Z,15.90
2018-08-16T23:18:21.950Z,15.80
2018-08-16T23:20:50.032Z,15.80
2018-08-16T23:23:18.129Z,15.80
2018-08-16T23:25:46.189Z,15.80
2018-08-16T23:28:14.259Z,15.80
2018-08-16T23:30:42.318Z,15.70
2018-08-16T23:33:10.622Z,15.70
2018-08-16T23:35:38.668Z,15.60
2018-08-16T23:38:06.764Z,15.60
2018-08-16T23:40:35.822Z,15.50
2018-08-16T23:43:03.887Z,15.50
2018-08-16T23:45:31.953Z,15.50
2018-08-16T23:48:11.588Z,15.50
2018-08-16T23:50:39.637Z,15.60
2018-08-16T23:53:07.738Z,15.70
2018-08-16T23:55:35.832Z,15.80
2018-08-16T23:58:03.958Z,15.80
